Gwinner, North Dakota
Current Conditions -  °F | °C
As of 3:55 AM on Monday 22 Dec 2014 (Local Time) from KGWR Reporting Station
Overcast Overcast  
Wind Chill: 28°   Ceiling: 100
Heat Index: 36°   Visibility: 1.5mi
Dew Point: 36°   Wind: 12mph
Humidity: 100%   Direction: 120°ESE
Pressure: 29.46"   Gusts: NA
Location:  46.23°N, 97.66°W
Report Text: KGWR 220955Z AUTO 12010KT 1 1/2SM OVC001 02/02 A2946 RMK A01 P000
Loading
Personal Weather Stations






























Interactive Weather Map New forecast layout! Learn more

10-Day Weather Forecast

Advertisements
Track Severe Weather on mobile